sensor_id;sensor_type;location;lat;lon;timestamp;temperature;humidity
18721;DHT22;9489;50.948;3.114;2023-02-22T00:00:28;5.20;99.90
18721;DHT22;9489;50.948;3.114;2023-02-22T00:05:37;5.20;99.90
18721;DHT22;9489;50.948;3.114;2023-02-22T00:08:09;5.20;99.90
18721;DHT22;9489;50.948;3.114;2023-02-22T00:10:36;5.20;99.90
18721;DHT22;9489;50.948;3.114;2023-02-22T00:13:04;5.10;99.90
18721;DHT22;9489;50.948;3.114;2023-02-22T00:15:30;5.10;99.90
18721;DHT22;9489;50.948;3.114;2023-02-22T00:17:56;5.10;99.90
18721;DHT22;9489;50.948;3.114;2023-02-22T00:20:22;5.00;99.90
18721;DHT22;9489;50.948;3.114;2023-02-22T00:22:48;5.00;99.90
18721;DHT22;9489;50.948;3.114;2023-02-22T00:25:17;5.00;99.90
18721;DHT22;9489;50.948;3.114;2023-02-22T00:27:44;5.00;99.90
18721;DHT22;9489;50.948;3.114;2023-02-22T00:30:20;5.00;99.90
18721;DHT22;9489;50.948;3.114;2023-02-22T00:32:47;5.00;99.90
18721;DHT22;9489;50.948;3.114;2023-02-22T00:35:17;5.00;99.90
18721;DHT22;9489;50.948;3.114;2023-02-22T00:37:45;5.00;99.90
18721;DHT22;9489;50.948;3.114;2023-02-22T00:40:16;5.00;99.90
18721;DHT22;9489;50.948;3.114;2023-02-22T00:42:42;5.00;99.90
18721;DHT22;9489;50.948;3.114;2023-02-22T00:45:08;5.10;99.90
18721;DHT22;9489;50.948;3.114;2023-02-22T00:47:34;5.10;99.90
18721;DHT22;9489;50.948;3.114;2023-02-22T00:50:00;5.10;99.90
18721;DHT22;9489;50.948;3.114;2023-02-22T00:52:27;5.10;99.90
18721;DHT22;9489;50.948;3.114;2023-02-22T00:54:53;5.20;99.90
18721;DHT22;9489;50.948;3.114;2023-02-22T00:57:20;5.20;99.90
18721;DHT22;9489;50.948;3.114;2023-02-22T00:59:46;5.20;99.90
18721;DHT22;9489;50.948;3.114;2023-02-22T01:02:12;5.20;99.90
18721;DHT22;9489;50.948;3.114;2023-02-22T01:04:38;5.20;99.90
18721;DHT22;9489;50.948;3.114;2023-02-22T01:07:03;5.20;99.90
18721;DHT22;9489;50.948;3.114;2023-02-22T01:09:29;5.20;99.90
18721;DHT22;9489;50.948;3.114;2023-02-22T01:11:55;5.20;99.90
18721;DHT22;9489;50.948;3.114;2023-02-22T01:14:22;5.20;99.90
18721;DHT22;9489;50.948;3.114;2023-02-22T01:16:54;5.30;99.90
18721;DHT22;9489;50.948;3.114;2023-02-22T01:19:21;5.30;99.90
18721;DHT22;9489;50.948;3.114;2023-02-22T01:21:48;5.30;99.90
18721;DHT22;9489;50.948;3.114;2023-02-22T01:24:15;5.40;99.90
18721;DHT22;9489;50.948;3.114;2023-02-22T01:26:42;5.40;99.90
18721;DHT22;9489;50.948;3.114;2023-02-22T01:29:11;5.30;99.90
18721;DHT22;9489;50.948;3.114;2023-02-22T01:31:43;5.30;99.90
18721;DHT22;9489;50.948;3.114;2023-02-22T01:34:16;5.30;99.90
18721;DHT22;9489;50.948;3.114;2023-02-22T01:36:42;5.20;99.90
18721;DHT22;9489;50.948;3.114;2023-02-22T01:39:07;5.20;99.90
18721;DHT22;9489;50.948;3.114;2023-02-22T01:41:35;5.20;99.90
18721;DHT22;9489;50.948;3.114;2023-02-22T01:44:34;5.20;99.90
18721;DHT22;9489;50.948;3.114;2023-02-22T01:47:02;5.20;99.90
18721;DHT22;9489;50.948;3.114;2023-02-22T01:49:37;5.10;99.90
18721;DHT22;9489;50.948;3.114;2023-02-22T01:52:08;5.10;99.90
18721;DHT22;9489;50.948;3.114;2023-02-22T01:54:41;5.00;99.90
18721;DHT22;9489;50.948;3.114;2023-02-22T01:57:15;5.00;99.90
18721;DHT22;9489;50.948;3.114;2023-02-22T01:59:46;4.90;99.90
18721;DHT22;9489;50.948;3.114;2023-02-22T02:02:13;4.90;99.90
18721;DHT22;9489;50.948;3.114;2023-02-22T02:04:39;4.90;99.90
18721;DHT22;9489;50.948;3.114;2023-02-22T02:07:10;4.80;99.90
18721;DHT22;9489;50.948;3.114;2023-02-22T02:12:17;4.90;99.90
18721;DHT22;9489;50.948;3.114;2023-02-22T02:14:45;4.90;99.90
18721;DHT22;9489;50.948;3.114;2023-02-22T02:17:15;4.90;99.90
18721;DHT22;9489;50.948;3.114;2023-02-22T02:20:23;4.80;99.90
18721;DHT22;9489;50.948;3.114;2023-02-22T02:23:23;4.80;99.90
18721;DHT22;9489;50.948;3.114;2023-02-22T02:34:21;4.80;99.90
18721;DHT22;9489;50.948;3.114;2023-02-22T02:37:10;4.80;99.90
18721;DHT22;9489;50.948;3.114;2023-02-22T02:40:10;4.90;99.90
18721;DHT22;9489;50.948;3.114;2023-02-22T02:45:48;4.90;99.90
18721;DHT22;9489;50.948;3.114;2023-02-22T02:48:16;4.90;99.90
18721;DHT22;9489;50.948;3.114;2023-02-22T02:50:46;5.00;99.90
18721;DHT22;9489;50.948;3.114;2023-02-22T02:53:15;5.00;99.90
18721;DHT22;9489;50.948;3.114;2023-02-22T02:55:42;5.00;99.90
18721;DHT22;9489;50.948;3.114;2023-02-22T02:58:17;5.00;99.90
18721;DHT22;9489;50.948;3.114;2023-02-22T03:00:42;5.10;99.90
18721;DHT22;9489;50.948;3.114;2023-02-22T03:06:20;5.10;99.90
18721;DHT22;9489;50.948;3.114;2023-02-22T03:15:33;5.20;99.90
18721;DHT22;9489;50.948;3.114;2023-02-22T03:18:12;5.20;99.90
18721;DHT22;9489;50.948;3.114;2023-02-22T03:21:08;5.20;99.90
18721;DHT22;9489;50.948;3.114;2023-02-22T03:23:40;5.30;99.90
18721;DHT22;9489;50.948;3.114;2023-02-22T03:26:15;5.30;99.90
18721;DHT22;9489;50.948;3.114;2023-02-22T03:28:45;5.40;99.90
18721;DHT22;9489;50.948;3.114;2023-02-22T03:31:28;5.40;99.90
18721;DHT22;9489;50.948;3.114;2023-02-22T03:34:18;5.40;99.90
18721;DHT22;9489;50.948;3.114;2023-02-22T03:36:48;5.50;99.90
18721;DHT22;9489;50.948;3.114;2023-02-22T03:39:17;5.50;99.90
18721;DHT22;9489;50.948;3.114;2023-02-22T03:41:47;5.50;99.90
18721;DHT22;9489;50.948;3.114;2023-02-22T03:44:20;5.50;99.90
18721;DHT22;9489;50.948;3.114;2023-02-22T03:46:49;5.50;99.90
18721;DHT22;9489;50.948;3.114;2023-02-22T03:49:32;5.50;99.90
18721;DHT22;9489;50.948;3.114;2023-02-22T03:52:00;5.50;99.90
18721;DHT22;9489;50.948;3.114;2023-02-22T03:54:27;5.40;99.90
18721;DHT22;9489;50.948;3.114;2023-02-22T03:57:00;5.50;99.90
18721;DHT22;9489;50.948;3.114;2023-02-22T03:59:28;5.60;99.90
18721;DHT22;9489;50.948;3.114;2023-02-22T04:01:54;5.60;99.90
18721;DHT22;9489;50.948;3.114;2023-02-22T04:04:19;5.70;99.90
18721;DHT22;9489;50.948;3.114;2023-02-22T04:06:46;5.70;99.90
18721;DHT22;9489;50.948;3.114;2023-02-22T04:09:15;5.70;99.90
18721;DHT22;9489;50.948;3.114;2023-02-22T04:11:41;5.70;99.90
18721;DHT22;9489;50.948;3.114;2023-02-22T04:14:06;5.70;99.90
18721;DHT22;9489;50.948;3.114;2023-02-22T04:16:32;5.70;99.90
18721;DHT22;9489;50.948;3.114;2023-02-22T04:18:58;5.70;99.90
18721;DHT22;9489;50.948;3.114;2023-02-22T04:21:24;5.70;99.90
18721;DHT22;9489;50.948;3.114;2023-02-22T04:23:50;5.70;99.90
18721;DHT22;9489;50.948;3.114;2023-02-22T04:26:16;5.70;99.90
18721;DHT22;9489;50.948;3.114;2023-02-22T04:28:41;5.70;99.90
18721;DHT22;9489;50.948;3.114;2023-02-22T04:31:07;5.70;99.90
18721;DHT22;9489;50.948;3.114;2023-02-22T04:33:33;5.70;99.90
18721;DHT22;9489;50.948;3.114;2023-02-22T04:35:59;5.60;99.90
18721;DHT22;9489;50.948;3.114;2023-02-22T04:38:25;5.70;99.90
18721;DHT22;9489;50.948;3.114;2023-02-22T04:40:51;5.70;99.90
18721;DHT22;9489;50.948;3.114;2023-02-22T04:43:17;5.70;99.90
18721;DHT22;9489;50.948;3.114;2023-02-22T04:45:43;5.70;99.90
18721;DHT22;9489;50.948;3.114;2023-02-22T04:48:09;5.70;99.90
18721;DHT22;9489;50.948;3.114;2023-02-22T04:50:34;5.70;99.90
18721;DHT22;9489;50.948;3.114;2023-02-22T04:53:00;5.70;99.90
18721;DHT22;9489;50.948;3.114;2023-02-22T04:55:26;5.70;99.90
18721;DHT22;9489;50.948;3.114;2023-02-22T04:57:53;5.70;99.90
18721;DHT22;9489;50.948;3.114;2023-02-22T05:00:19;5.80;99.90
18721;DHT22;9489;50.948;3.114;2023-02-22T05:02:47;5.80;99.90
18721;DHT22;9489;50.948;3.114;2023-02-22T05:05:14;5.80;99.90
18721;DHT22;9489;50.948;3.114;2023-02-22T05:07:41;5.80;99.90
18721;DHT22;9489;50.948;3.114;2023-02-22T05:10:07;5.70;99.90
18721;DHT22;9489;50.948;3.114;2023-02-22T05:12:34;5.70;99.90
18721;DHT22;9489;50.948;3.114;2023-02-22T05:15:00;5.70;99.90
18721;DHT22;9489;50.948;3.114;2023-02-22T05:17:25;5.70;99.90
18721;DHT22;9489;50.948;3.114;2023-02-22T05:19:51;5.70;99.90
18721;DHT22;9489;50.948;3.114;2023-02-22T05:22:16;5.70;99.90
18721;DHT22;9489;50.948;3.114;2023-02-22T05:24:42;5.70;99.90
18721;DHT22;9489;50.948;3.114;2023-02-22T05:27:08;5.70;99.90
18721;DHT22;9489;50.948;3.114;2023-02-22T05:29:34;5.90;99.90
18721;DHT22;9489;50.948;3.114;2023-02-22T05:31:59;5.80;99.90
18721;DHT22;9489;50.948;3.114;2023-02-22T05:34:27;5.80;99.90
18721;DHT22;9489;50.948;3.114;2023-02-22T05:36:52;5.70;99.90
18721;DHT22;9489;50.948;3.114;2023-02-22T05:39:18;5.70;99.90
18721;DHT22;9489;50.948;3.114;2023-02-22T05:41:44;5.70;99.90
18721;DHT22;9489;50.948;3.114;2023-02-22T05:44:10;5.70;99.90
18721;DHT22;9489;50.948;3.114;2023-02-22T05:46:35;5.70;99.90
18721;DHT22;9489;50.948;3.114;2023-02-22T05:49:01;5.70;99.90
18721;DHT22;9489;50.948;3.114;2023-02-22T05:51:26;5.70;99.90
18721;DHT22;9489;50.948;3.114;2023-02-22T05:53:52;5.80;99.90
18721;DHT22;9489;50.948;3.114;2023-02-22T05:56:26;5.80;99.90
18721;DHT22;9489;50.948;3.114;2023-02-22T05:58:52;5.90;99.90
18721;DHT22;9489;50.948;3.114;2023-02-22T06:01:18;6.00;99.90
18721;DHT22;9489;50.948;3.114;2023-02-22T06:03:48;6.00;99.90
18721;DHT22;9489;50.948;3.114;2023-02-22T06:06:14;6.10;99.90
18721;DHT22;9489;50.948;3.114;2023-02-22T06:08:40;6.10;99.90
18721;DHT22;9489;50.948;3.114;2023-02-22T06:11:06;6.10;99.90
18721;DHT22;9489;50.948;3.114;2023-02-22T06:13:34;6.10;99.90
18721;DHT22;9489;50.948;3.114;2023-02-22T06:16:00;6.10;99.90
18721;DHT22;9489;50.948;3.114;2023-02-22T06:18:25;6.10;99.90
18721;DHT22;9489;50.948;3.114;2023-02-22T06:20:51;6.20;99.90
18721;DHT22;9489;50.948;3.114;2023-02-22T06:23:17;6.20;99.90
18721;DHT22;9489;50.948;3.114;2023-02-22T06:25:42;6.10;99.90
18721;DHT22;9489;50.948;3.114;2023-02-22T06:28:08;6.20;99.90
18721;DHT22;9489;50.948;3.114;2023-02-22T06:30:35;6.20;99.90
18721;DHT22;9489;50.948;3.114;2023-02-22T06:33:00;6.20;99.90
18721;DHT22;9489;50.948;3.114;2023-02-22T06:35:26;6.20;99.90
18721;DHT22;9489;50.948;3.114;2023-02-22T06:37:52;6.10;99.90
18721;DHT22;9489;50.948;3.114;2023-02-22T06:40:17;6.10;99.90
18721;DHT22;9489;50.948;3.114;2023-02-22T06:42:43;6.10;99.90
18721;DHT22;9489;50.948;3.114;2023-02-22T06:45:11;6.10;99.90
18721;DHT22;9489;50.948;3.114;2023-02-22T06:47:38;6.10;99.90
18721;DHT22;9489;50.948;3.114;2023-02-22T06:50:05;6.10;99.90
18721;DHT22;9489;50.948;3.114;2023-02-22T06:52:30;6.10;99.90
18721;DHT22;9489;50.948;3.114;2023-02-22T06:54:56;6.10;99.90
18721;DHT22;9489;50.948;3.114;2023-02-22T06:57:21;6.20;99.90
18721;DHT22;9489;50.948;3.114;2023-02-22T06:59:47;6.20;99.90
18721;DHT22;9489;50.948;3.114;2023-02-22T07:02:13;6.30;99.90
18721;DHT22;9489;50.948;3.114;2023-02-22T07:04:39;6.30;99.90
18721;DHT22;9489;50.948;3.114;2023-02-22T07:07:05;6.30;99.90
18721;DHT22;9489;50.948;3.114;2023-02-22T07:09:30;6.40;99.90
18721;DHT22;9489;50.948;3.114;2023-02-22T07:11:56;6.40;99.90
18721;DHT22;9489;50.948;3.114;2023-02-22T07:14:22;6.40;99.90
18721;DHT22;9489;50.948;3.114;2023-02-22T07:16:47;6.40;99.90
18721;DHT22;9489;50.948;3.114;2023-02-22T07:19:13;6.40;99.90
18721;DHT22;9489;50.948;3.114;2023-02-22T07:21:38;6.50;99.90
18721;DHT22;9489;50.948;3.114;2023-02-22T07:24:04;6.50;99.90
18721;DHT22;9489;50.948;3.114;2023-02-22T07:26:30;6.50;99.90
18721;DHT22;9489;50.948;3.114;2023-02-22T07:28:55;6.60;99.90
18721;DHT22;9489;50.948;3.114;2023-02-22T07:31:21;6.60;99.90
18721;DHT22;9489;50.948;3.114;2023-02-22T07:33:47;6.70;99.90
18721;DHT22;9489;50.948;3.114;2023-02-22T07:36:14;6.70;99.90
18721;DHT22;9489;50.948;3.114;2023-02-22T07:38:43;6.70;99.90
18721;DHT22;9489;50.948;3.114;2023-02-22T07:41:09;6.70;99.90
18721;DHT22;9489;50.948;3.114;2023-02-22T07:43:35;6.70;99.90
18721;DHT22;9489;50.948;3.114;2023-02-22T07:46:01;6.70;99.90
18721;DHT22;9489;50.948;3.114;2023-02-22T07:48:29;6.70;99.90
18721;DHT22;9489;50.948;3.114;2023-02-22T07:50:56;6.80;99.90
18721;DHT22;9489;50.948;3.114;2023-02-22T07:53:24;6.80;99.90
18721;DHT22;9489;50.948;3.114;2023-02-22T07:55:50;6.80;99.90
18721;DHT22;9489;50.948;3.114;2023-02-22T07:58:21;6.90;99.90
18721;DHT22;9489;50.948;3.114;2023-02-22T08:00:47;6.80;99.90
18721;DHT22;9489;50.948;3.114;2023-02-22T08:03:15;6.90;99.90
18721;DHT22;9489;50.948;3.114;2023-02-22T08:05:45;6.90;99.90
18721;DHT22;9489;50.948;3.114;2023-02-22T08:08:11;6.90;99.90
18721;DHT22;9489;50.948;3.114;2023-02-22T08:10:37;7.00;99.90
18721;DHT22;9489;50.948;3.114;2023-02-22T08:13:03;7.00;99.90
18721;DHT22;9489;50.948;3.114;2023-02-22T08:15:37;7.00;99.90
18721;DHT22;9489;50.948;3.114;2023-02-22T08:18:06;7.00;99.90
18721;DHT22;9489;50.948;3.114;2023-02-22T08:20:33;7.10;99.90
18721;DHT22;9489;50.948;3.114;2023-02-22T08:22:59;7.10;99.90
18721;DHT22;9489;50.948;3.114;2023-02-22T08:25:27;7.20;99.90
18721;DHT22;9489;50.948;3.114;2023-02-22T08:27:59;7.20;99.90
18721;DHT22;9489;50.948;3.114;2023-02-22T08:30:27;7.20;99.90
18721;DHT22;9489;50.948;3.114;2023-02-22T08:32:53;7.30;99.90
18721;DHT22;9489;50.948;3.114;2023-02-22T08:35:20;7.40;99.90
18721;DHT22;9489;50.948;3.114;2023-02-22T08:37:51;7.40;99.90
18721;DHT22;9489;50.948;3.114;2023-02-22T08:40:20;7.50;99.90
18721;DHT22;9489;50.948;3.114;2023-02-22T08:42:46;7.50;99.90
18721;DHT22;9489;50.948;3.114;2023-02-22T08:45:12;7.50;99.90
18721;DHT22;9489;50.948;3.114;2023-02-22T08:47:39;7.50;99.90
18721;DHT22;9489;50.948;3.114;2023-02-22T08:50:05;7.50;99.90
18721;DHT22;9489;50.948;3.114;2023-02-22T08:52:31;7.60;99.90
18721;DHT22;9489;50.948;3.114;2023-02-22T08:54:57;7.60;99.90
18721;DHT22;9489;50.948;3.114;2023-02-22T08:57:22;7.70;99.90
18721;DHT22;9489;50.948;3.114;2023-02-22T08:59:48;7.80;99.90
18721;DHT22;9489;50.948;3.114;2023-02-22T09:02:15;7.80;99.90
18721;DHT22;9489;50.948;3.114;2023-02-22T09:04:42;7.90;99.90
18721;DHT22;9489;50.948;3.114;2023-02-22T09:07:07;8.00;99.90
18721;DHT22;9489;50.948;3.114;2023-02-22T09:09:33;8.00;99.90
18721;DHT22;9489;50.948;3.114;2023-02-22T09:11:58;8.10;99.90
18721;DHT22;9489;50.948;3.114;2023-02-22T09:14:24;8.20;99.90
18721;DHT22;9489;50.948;3.114;2023-02-22T09:16:50;8.20;99.90
18721;DHT22;9489;50.948;3.114;2023-02-22T09:19:15;8.30;99.90
18721;DHT22;9489;50.948;3.114;2023-02-22T09:21:41;8.30;99.90
18721;DHT22;9489;50.948;3.114;2023-02-22T09:24:07;8.30;99.90
18721;DHT22;9489;50.948;3.114;2023-02-22T09:26:37;8.40;99.90
18721;DHT22;9489;50.948;3.114;2023-02-22T09:29:07;8.40;99.90
18721;DHT22;9489;50.948;3.114;2023-02-22T09:31:40;8.50;99.90
18721;DHT22;9489;50.948;3.114;2023-02-22T09:34:07;8.50;99.90
18721;DHT22;9489;50.948;3.114;2023-02-22T09:36:43;8.60;99.90
18721;DHT22;9489;50.948;3.114;2023-02-22T09:39:11;8.70;99.90
18721;DHT22;9489;50.948;3.114;2023-02-22T09:41:53;8.80;99.90
18721;DHT22;9489;50.948;3.114;2023-02-22T09:44:23;8.90;99.90
18721;DHT22;9489;50.948;3.114;2023-02-22T09:46:51;8.90;99.90
18721;DHT22;9489;50.948;3.114;2023-02-22T09:49:26;9.00;99.90
18721;DHT22;9489;50.948;3.114;2023-02-22T09:52:12;9.00;99.90
18721;DHT22;9489;50.948;3.114;2023-02-22T09:54:44;9.10;99.90
18721;DHT22;9489;50.948;3.114;2023-02-22T09:57:15;9.20;99.90
18721;DHT22;9489;50.948;3.114;2023-02-22T09:59:49;9.30;99.90
18721;DHT22;9489;50.948;3.114;2023-02-22T10:02:33;9.30;99.90
18721;DHT22;9489;50.948;3.114;2023-02-22T10:05:05;9.30;99.90
18721;DHT22;9489;50.948;3.114;2023-02-22T10:07:42;9.30;99.90
18721;DHT22;9489;50.948;3.114;2023-02-22T10:10:16;9.30;99.90
18721;DHT22;9489;50.948;3.114;2023-02-22T10:13:00;9.30;99.90
18721;DHT22;9489;50.948;3.114;2023-02-22T10:15:53;9.20;99.90
18721;DHT22;9489;50.948;3.114;2023-02-22T10:18:26;9.20;99.90
18721;DHT22;9489;50.948;3.114;2023-02-22T10:26:34;9.30;99.90
18721;DHT22;9489;50.948;3.114;2023-02-22T10:29:29;9.40;99.90
18721;DHT22;9489;50.948;3.114;2023-02-22T10:31:56;9.30;99.90
18721;DHT22;9489;50.948;3.114;2023-02-22T10:34:32;9.40;99.90
18721;DHT22;9489;50.948;3.114;2023-02-22T10:37:30;9.40;99.90
18721;DHT22;9489;50.948;3.114;2023-02-22T10:40:19;9.30;99.90
18721;DHT22;9489;50.948;3.114;2023-02-22T10:42:48;9.30;99.90
18721;DHT22;9489;50.948;3.114;2023-02-22T10:45:30;9.40;99.90
18721;DHT22;9489;50.948;3.114;2023-02-22T10:48:04;9.30;99.90
18721;DHT22;9489;50.948;3.114;2023-02-22T10:50:35;9.30;99.90
18721;DHT22;9489;50.948;3.114;2023-02-22T10:53:01;9.30;99.90
18721;DHT22;9489;50.948;3.114;2023-02-22T10:55:27;9.30;99.90
18721;DHT22;9489;50.948;3.114;2023-02-22T10:58:03;9.20;99.90
18721;DHT22;9489;50.948;3.114;2023-02-22T11:00:34;9.20;99.90
18721;DHT22;9489;50.948;3.114;2023-02-22T11:05:39;9.10;99.90
18721;DHT22;9489;50.948;3.114;2023-02-22T11:10:47;9.20;99.90
18721;DHT22;9489;50.948;3.114;2023-02-22T11:13:36;9.20;99.90
18721;DHT22;9489;50.948;3.114;2023-02-22T11:16:34;9.30;99.90
18721;DHT22;9489;50.948;3.114;2023-02-22T11:19:15;9.30;99.90
18721;DHT22;9489;50.948;3.114;2023-02-22T11:21:45;9.30;99.90
18721;DHT22;9489;50.948;3.114;2023-02-22T11:24:13;9.30;99.90
18721;DHT22;9489;50.948;3.114;2023-02-22T11:26:45;9.40;99.90
18721;DHT22;9489;50.948;3.114;2023-02-22T11:29:28;9.40;99.90
18721;DHT22;9489;50.948;3.114;2023-02-22T11:32:01;9.40;99.90
18721;DHT22;9489;50.948;3.114;2023-02-22T11:34:39;9.40;99.90
18721;DHT22;9489;50.948;3.114;2023-02-22T11:37:29;9.40;99.90
18721;DHT22;9489;50.948;3.114;2023-02-22T11:42:42;9.50;99.90
18721;DHT22;9489;50.948;3.114;2023-02-22T11:47:49;9.50;99.90
18721;DHT22;9489;50.948;3.114;2023-02-22T11:50:28;9.50;99.90
18721;DHT22;9489;50.948;3.114;2023-02-22T11:55:50;9.40;99.90
18721;DHT22;9489;50.948;3.114;2023-02-22T12:10:22;9.50;99.90
18721;DHT22;9489;50.948;3.114;2023-02-22T12:15:42;9.50;99.90
18721;DHT22;9489;50.948;3.114;2023-02-22T12:21:15;9.60;99.90
18721;DHT22;9489;50.948;3.114;2023-02-22T12:24:02;9.60;99.90
18721;DHT22;9489;50.948;3.114;2023-02-22T12:29:30;9.60;99.90
18721;DHT22;9489;50.948;3.114;2023-02-22T12:32:11;9.70;99.90
18721;DHT22;9489;50.948;3.114;2023-02-22T12:34:45;9.80;99.90
18721;DHT22;9489;50.948;3.114;2023-02-22T12:37:27;9.80;99.90
18721;DHT22;9489;50.948;3.114;2023-02-22T12:40:13;9.80;99.90
18721;DHT22;9489;50.948;3.114;2023-02-22T12:42:46;9.90;99.90
18721;DHT22;9489;50.948;3.114;2023-02-22T12:45:38;9.90;99.90
18721;DHT22;9489;50.948;3.114;2023-02-22T12:48:20;9.90;99.90
18721;DHT22;9489;50.948;3.114;2023-02-22T12:50:53;10.00;99.90
18721;DHT22;9489;50.948;3.114;2023-02-22T12:53:25;10.00;99.90
18721;DHT22;9489;50.948;3.114;2023-02-22T12:55:59;10.00;99.90
18721;DHT22;9489;50.948;3.114;2023-02-22T12:58:34;10.10;99.90
18721;DHT22;9489;50.948;3.114;2023-02-22T13:01:05;10.10;99.90
18721;DHT22;9489;50.948;3.114;2023-02-22T13:03:41;10.10;99.90
18721;DHT22;9489;50.948;3.114;2023-02-22T13:06:39;10.10;99.90
18721;DHT22;9489;50.948;3.114;2023-02-22T13:09:31;10.10;99.90
18721;DHT22;9489;50.948;3.114;2023-02-22T13:21:15;10.10;99.90
18721;DHT22;9489;50.948;3.114;2023-02-22T13:24:04;10.10;99.90
18721;DHT22;9489;50.948;3.114;2023-02-22T13:26:40;10.10;99.90
18721;DHT22;9489;50.948;3.114;2023-02-22T13:29:50;10.10;99.90
18721;DHT22;9489;50.948;3.114;2023-02-22T13:35:18;10.10;99.90
18721;DHT22;9489;50.948;3.114;2023-02-22T13:51:58;10.00;99.90
18721;DHT22;9489;50.948;3.114;2023-02-22T13:54:49;10.00;99.90
18721;DHT22;9489;50.948;3.114;2023-02-22T13:57:27;10.10;99.90
18721;DHT22;9489;50.948;3.114;2023-02-22T14:10:47;10.40;99.90
18721;DHT22;9489;50.948;3.114;2023-02-22T14:13:21;10.40;99.90
18721;DHT22;9489;50.948;3.114;2023-02-22T14:16:15;10.50;99.90
18721;DHT22;9489;50.948;3.114;2023-02-22T14:18:43;10.60;99.90
18721;DHT22;9489;50.948;3.114;2023-02-22T14:21:17;10.60;99.90
18721;DHT22;9489;50.948;3.114;2023-02-22T14:23:53;10.60;99.90
18721;DHT22;9489;50.948;3.114;2023-02-22T14:26:34;10.60;99.90
18721;DHT22;9489;50.948;3.114;2023-02-22T14:41:57;10.50;99.90
18721;DHT22;9489;50.948;3.114;2023-02-22T14:44:32;10.50;99.90
18721;DHT22;9489;50.948;3.114;2023-02-22T14:47:03;10.40;99.90
18721;DHT22;9489;50.948;3.114;2023-02-22T14:49:32;10.40;99.90
18721;DHT22;9489;50.948;3.114;2023-02-22T14:52:05;10.40;99.90
18721;DHT22;9489;50.948;3.114;2023-02-22T14:54:53;10.40;99.90
18721;DHT22;9489;50.948;3.114;2023-02-22T14:57:40;10.40;99.90
18721;DHT22;9489;50.948;3.114;2023-02-22T15:00:45;10.40;99.90
18721;DHT22;9489;50.948;3.114;2023-02-22T15:03:23;10.40;99.90
18721;DHT22;9489;50.948;3.114;2023-02-22T15:05:49;10.40;99.90
18721;DHT22;9489;50.948;3.114;2023-02-22T15:08:17;10.30;99.90
18721;DHT22;9489;50.948;3.114;2023-02-22T15:10:51;10.40;99.90
18721;DHT22;9489;50.948;3.114;2023-02-22T15:13:25;10.40;99.90
18721;DHT22;9489;50.948;3.114;2023-02-22T15:15:57;10.40;99.90
18721;DHT22;9489;50.948;3.114;2023-02-22T15:18:32;10.50;99.90
18721;DHT22;9489;50.948;3.114;2023-02-22T15:21:12;10.50;99.90
18721;DHT22;9489;50.948;3.114;2023-02-22T15:23:50;10.50;99.90
18721;DHT22;9489;50.948;3.114;2023-02-22T15:26:30;10.50;99.90
18721;DHT22;9489;50.948;3.114;2023-02-22T15:29:00;10.50;99.90
18721;DHT22;9489;50.948;3.114;2023-02-22T15:31:33;10.50;99.90
18721;DHT22;9489;50.948;3.114;2023-02-22T15:36:37;10.50;99.90
18721;DHT22;9489;50.948;3.114;2023-02-22T15:39:02;10.50;99.90
18721;DHT22;9489;50.948;3.114;2023-02-22T15:41:34;10.40;99.90
18721;DHT22;9489;50.948;3.114;2023-02-22T15:46:27;10.30;99.90
18721;DHT22;9489;50.948;3.114;2023-02-22T15:51:41;10.40;99.90
18721;DHT22;9489;50.948;3.114;2023-02-22T15:54:11;10.30;99.90
18721;DHT22;9489;50.948;3.114;2023-02-22T15:56:50;10.30;99.90
18721;DHT22;9489;50.948;3.114;2023-02-22T15:59:20;10.40;99.90
18721;DHT22;9489;50.948;3.114;2023-02-22T16:01:49;10.30;99.90
18721;DHT22;9489;50.948;3.114;2023-02-22T16:04:18;10.30;99.90
18721;DHT22;9489;50.948;3.114;2023-02-22T16:06:44;10.30;99.90
18721;DHT22;9489;50.948;3.114;2023-02-22T16:09:14;10.40;99.90
18721;DHT22;9489;50.948;3.114;2023-02-22T16:11:43;10.30;99.90
18721;DHT22;9489;50.948;3.114;2023-02-22T16:14:30;10.30;99.90
18721;DHT22;9489;50.948;3.114;2023-02-22T16:17:33;10.30;99.90
18721;DHT22;9489;50.948;3.114;2023-02-22T16:22:37;10.30;99.90
18721;DHT22;9489;50.948;3.114;2023-02-22T16:27:57;10.30;99.90
18721;DHT22;9489;50.948;3.114;2023-02-22T16:33:03;10.20;99.90
18721;DHT22;9489;50.948;3.114;2023-02-22T16:35:30;10.20;99.90
18721;DHT22;9489;50.948;3.114;2023-02-22T16:38:00;10.20;99.90
18721;DHT22;9489;50.948;3.114;2023-02-22T16:40:35;10.20;99.90
18721;DHT22;9489;50.948;3.114;2023-02-22T16:43:07;10.20;99.90
18721;DHT22;9489;50.948;3.114;2023-02-22T16:45:32;10.20;99.90
18721;DHT22;9489;50.948;3.114;2023-02-22T16:47:59;10.20;99.90
18721;DHT22;9489;50.948;3.114;2023-02-22T16:50:29;10.10;99.90
18721;DHT22;9489;50.948;3.114;2023-02-22T16:52:55;10.10;99.90
18721;DHT22;9489;50.948;3.114;2023-02-22T16:55:23;10.10;99.90
18721;DHT22;9489;50.948;3.114;2023-02-22T16:57:49;10.10;99.90
18721;DHT22;9489;50.948;3.114;2023-02-22T17:00:18;10.00;99.90
18721;DHT22;9489;50.948;3.114;2023-02-22T17:02:46;10.00;99.90
18721;DHT22;9489;50.948;3.114;2023-02-22T17:05:14;10.00;99.90
18721;DHT22;9489;50.948;3.114;2023-02-22T17:07:40;9.90;99.90
18721;DHT22;9489;50.948;3.114;2023-02-22T17:10:07;9.90;99.90
18721;DHT22;9489;50.948;3.114;2023-02-22T17:12:38;9.90;99.90
18721;DHT22;9489;50.948;3.114;2023-02-22T17:15:29;9.90;99.90
18721;DHT22;9489;50.948;3.114;2023-02-22T17:17:57;9.90;99.90
18721;DHT22;9489;50.948;3.114;2023-02-22T17:20:23;9.80;99.90
18721;DHT22;9489;50.948;3.114;2023-02-22T17:22:59;9.80;99.90
18721;DHT22;9489;50.948;3.114;2023-02-22T17:25:29;9.80;99.90
18721;DHT22;9489;50.948;3.114;2023-02-22T17:27:56;9.80;99.90
18721;DHT22;9489;50.948;3.114;2023-02-22T17:30:21;9.80;99.90
18721;DHT22;9489;50.948;3.114;2023-02-22T17:32:49;9.80;99.90
18721;DHT22;9489;50.948;3.114;2023-02-22T17:35:19;9.80;99.90
18721;DHT22;9489;50.948;3.114;2023-02-22T17:37:50;9.80;99.90
18721;DHT22;9489;50.948;3.114;2023-02-22T17:40:16;9.80;99.90
18721;DHT22;9489;50.948;3.114;2023-02-22T17:42:42;9.80;99.90
18721;DHT22;9489;50.948;3.114;2023-02-22T17:45:09;9.70;99.90
18721;DHT22;9489;50.948;3.114;2023-02-22T17:47:42;9.70;99.90
18721;DHT22;9489;50.948;3.114;2023-02-22T17:50:09;9.70;99.90
18721;DHT22;9489;50.948;3.114;2023-02-22T17:52:35;9.70;99.90
18721;DHT22;9489;50.948;3.114;2023-02-22T17:55:01;9.80;99.90
18721;DHT22;9489;50.948;3.114;2023-02-22T17:57:26;9.80;99.90
18721;DHT22;9489;50.948;3.114;2023-02-22T17:59:53;9.80;99.90
18721;DHT22;9489;50.948;3.114;2023-02-22T18:02:19;9.80;99.90
18721;DHT22;9489;50.948;3.114;2023-02-22T18:04:44;9.90;99.90
18721;DHT22;9489;50.948;3.114;2023-02-22T18:07:10;10.00;99.90
18721;DHT22;9489;50.948;3.114;2023-02-22T18:09:37;9.90;99.90
18721;DHT22;9489;50.948;3.114;2023-02-22T18:12:03;9.80;99.90
18721;DHT22;9489;50.948;3.114;2023-02-22T18:14:28;9.80;99.90
18721;DHT22;9489;50.948;3.114;2023-02-22T18:16:54;9.80;99.90
18721;DHT22;9489;50.948;3.114;2023-02-22T18:19:20;9.80;99.90
18721;DHT22;9489;50.948;3.114;2023-02-22T18:21:46;9.80;99.90
18721;DHT22;9489;50.948;3.114;2023-02-22T18:24:12;9.90;99.90
18721;DHT22;9489;50.948;3.114;2023-02-22T18:26:38;9.80;99.90
18721;DHT22;9489;50.948;3.114;2023-02-22T18:29:04;9.90;99.90
18721;DHT22;9489;50.948;3.114;2023-02-22T18:31:30;9.90;99.90
18721;DHT22;9489;50.948;3.114;2023-02-22T18:33:56;9.90;99.90